Time;durP1;ratioP1;P1;durP2;ratioP2;P2;SDS_P1;SDS_P2;PMS_P1;PMS_P2;Temp;Humidity;BMP_temperature;BMP_pressure;BME280_temperature;BME280_humidity;BME280_pressure;Samples;Min_cycle;Max_cycle;Signal;HPM_P1;HPM_P2
2021/06/10 00:02:20;;;;;;;;;;;;;;;16.11;100.00;99379.34;5070245;28;19938;-82
2021/06/10 00:04:47;;;;;;;;;;;;;;;15.96;100.00;99386.69;5085913;28;19951;-82
2021/06/10 00:07:16;;;;;;;;;;;;;;;15.89;100.00;99390.50;5070094;28;19924;-82
2021/06/10 00:09:43;;;;;;;;;;;;;;;15.83;100.00;99400.78;5056271;28;20384;-82
2021/06/10 00:12:11;;;;;;;;;;;;;;;15.77;100.00;99401.78;5050922;28;19931;-82
2021/06/10 00:14:40;;;;;;;;;;;;;;;15.84;100.00;99407.97;5072866;28;19932;-83
2021/06/10 00:17:07;;;;;;;;;;;;;;;15.90;100.00;99405.41;5066037;28;19932;-83
2021/06/10 00:19:34;;;;;;;;;;;;;;;15.85;100.00;99405.94;5074330;28;19964;-82
2021/06/10 00:22:02;;;;;;;;;;;;;;;15.79;100.00;99408.56;5081470;28;19924;-83
2021/06/10 00:24:30;;;;;;;;;;;;;;;15.71;100.00;99414.84;5107879;28;19931;-82
2021/06/10 00:27:00;;;;;;;;;;;;;;;15.68;100.00;99413.72;5039718;28;20319;-82
2021/06/10 00:29:28;;;;;;;;;;;;;;;15.67;100.00;99412.16;5086108;28;20379;-82
2021/06/10 00:31:55;;;;;;;;;;;;;;;15.72;100.00;99411.56;5075719;28;20322;-82
2021/06/10 00:34:22;;;;;;;;;;;;;;;15.84;100.00;99413.59;5109297;28;19924;-82
2021/06/10 01:11:08;;;;;;;;;;;;;;;16.45;100.00;99418.13;5036976;28;19924;-82
2021/06/10 01:13:57;;;;;;;;;;;;;;;16.45;100.00;99420.94;5054789;28;19925;-82
2021/06/10 01:16:29;;;;;;;;;;;;;;;16.39;100.00;99425.53;5088292;28;19931;-82
2021/06/10 01:18:58;;;;;;;;;;;;;;;16.31;100.00;99430.63;5054665;28;19924;-82
2021/06/10 01:21:26;;;;;;;;;;;;;;;16.23;100.00;99424.44;5054867;28;19932;-82
2021/06/10 01:23:53;;;;;;;;;;;;;;;16.25;100.00;99416.28;5055795;28;19925;-82
2021/06/10 01:26:31;;;;;;;;;;;;;;;16.23;100.00;99424.44;5054402;28;19925;-82
2021/06/10 01:29:00;;;;;;;;;;;;;;;16.22;100.00;99417.19;5054575;28;20421;-82
2021/06/10 01:31:27;;;;;;;;;;;;;;;16.20;100.00;99414.06;5055757;28;19930;-82
2021/06/10 01:33:57;;;;;;;;;;;;;;;16.16;100.00;99419.00;5055633;28;19928;-83
2021/06/10 01:36:25;;;;;;;;;;;;;;;16.11;100.00;99413.16;5054338;28;19948;-82
2021/06/10 01:38:54;;;;;;;;;;;;;;;16.11;100.00;99411.13;5055454;28;19925;-82
2021/06/10 01:41:21;;;;;;;;;;;;;;;16.15;100.00;99406.16;5055487;28;19925;-82
2021/06/10 01:43:49;;;;;;;;;;;;;;;16.11;100.00;99405.47;5053964;28;19994;-82
2021/06/10 01:46:17;;;;;;;;;;;;;;;16.12;100.00;99409.88;5054014;28;20063;-83
2021/06/10 01:48:45;;;;;;;;;;;;;;;16.07;100.00;99416.09;5054372;28;19924;-82
2021/06/10 01:51:17;;;;;;;;;;;;;;;16.03;100.00;99421.06;5055214;28;19947;-83
2021/06/10 01:53:45;;;;;;;;;;;;;;;15.95;100.00;99414.06;5054161;28;19925;-82
2021/06/10 01:56:13;;;;;;;;;;;;;;;15.94;100.00;99415.31;5055045;28;20368;-82
2021/06/10 01:58:42;;;;;;;;;;;;;;;15.89;100.00;99415.88;5087750;28;19987;-83
2021/06/10 02:01:12;;;;;;;;;;;;;;;15.87;100.00;99407.06;5086932;28;20014;-83
2021/06/10 02:03:39;;;;;;;;;;;;;;;15.89;100.00;99398.16;5055428;28;19932;-83
2021/06/10 02:06:08;;;;;;;;;;;;;;;15.87;100.00;99400.66;5054595;28;20388;-83
2021/06/10 02:08:36;;;;;;;;;;;;;;;15.85;100.00;99403.94;5053833;28;19931;-83
2021/06/10 02:11:04;;;;;;;;;;;;;;;15.89;100.00;99404.59;5036992;28;19925;-83
2021/06/10 02:13:33;;;;;;;;;;;;;;;15.83;100.00;99408.44;5053466;28;19924;-83
2021/06/10 02:16:05;;;;;;;;;;;;;;;15.79;100.00;99413.38;5053819;28;20025;-83
2021/06/10 02:18:33;;;;;;;;;;;;;;;15.73;100.00;99413.19;5053562;28;20364;-83
2021/06/10 02:21:01;;;;;;;;;;;;;;;15.73;100.00;99426.47;5052873;28;19974;-83
2021/06/10 02:23:28;;;;;;;;;;;;;;;15.68;100.00;99422.19;5086432;28;20356;-83
2021/06/10 02:25:55;;;;;;;;;;;;;;;15.61;100.00;99430.84;5054496;28;19924;-82
2021/06/10 02:28:23;;;;;;;;;;;;;;;15.56;100.00;99427.78;5054647;28;19944;-82
2021/06/10 02:30:50;;;;;;;;;;;;;;;15.50;100.00;99427.56;5054754;28;20070;-83
2021/06/10 02:33:17;;;;;;;;;;;;;;;15.51;100.00;99443.22;5086431;28;20022;-82
2021/06/10 02:35:46;;;;;;;;;;;;;;;15.60;100.00;99442.56;5069798;28;19971;-83
2021/06/10 02:38:15;;;;;;;;;;;;;;;15.60;100.00;99440.53;5054299;28;19925;-82
2021/06/10 02:40:44;;;;;;;;;;;;;;;15.60;100.00;99443.34;5086234;28;19925;-82
2021/06/10 02:43:13;;;;;;;;;;;;;;;15.59;100.00;99447.41;5036751;28;20066;-83
2021/06/10 02:45:40;;;;;;;;;;;;;;;15.61;100.00;99450.56;5036526;28;20081;-82
2021/06/10 02:48:09;;;;;;;;;;;;;;;15.65;100.00;99445.59;5086341;28;19936;-83
2021/06/10 02:50:39;;;;;;;;;;;;;;;15.65;100.00;99444.81;5054317;28;20082;-82
2021/06/10 02:53:07;;;;;;;;;;;;;;;15.57;100.00;99449.88;5053858;28;20376;-83
2021/06/10 02:55:36;;;;;;;;;;;;;;;15.59;100.00;99443.78;5054959;28;19970;-83
2021/06/10 02:58:04;;;;;;;;;;;;;;;15.50;100.00;99444.47;5031963;28;20431;-82
2021/06/10 03:00:32;;;;;;;;;;;;;;;15.51;100.00;99440.41;5047188;28;19925;-83
2021/06/10 03:03:01;;;;;;;;;;;;;;;15.49;100.00;99437.25;5052756;28;19939;-83
2021/06/10 03:05:29;;;;;;;;;;;;;;;15.43;100.00;99444.69;5053254;28;19936;-83
2021/06/10 03:07:57;;;;;;;;;;;;;;;15.34;100.00;99438.84;5052185;28;19932;-83
2021/06/10 03:10:27;;;;;;;;;;;;;;;15.34;100.00;99441.66;5053395;28;20024;-83
2021/06/10 03:12:55;;;;;;;;;;;;;;;15.27;100.00;99450.34;5085810;28;19925;-83
2021/06/10 03:15:22;;;;;;;;;;;;;;;15.23;100.00;99444.03;5049038;28;19925;-83
2021/06/10 03:17:50;;;;;;;;;;;;;;;15.22;100.00;99450.09;5103562;28;19931;-83
2021/06/10 03:20:17;;;;;;;;;;;;;;;15.18;100.00;99440.94;5092494;28;20474;-83
2021/06/10 03:22:44;;;;;;;;;;;;;;;15.15;100.00;99451.09;5072831;28;19925;-83
2021/06/10 03:25:12;;;;;;;;;;;;;;;15.14;100.00;99449.50;5074048;28;20288;-83
2021/06/10 03:27:40;;;;;;;;;;;;;;;15.16;100.00;99452.66;5056301;28;19931;-83
2021/06/10 03:30:09;;;;;;;;;;;;;;;15.15;100.00;99455.91;5062475;28;20010;-82
2021/06/10 03:32:37;;;;;;;;;;;;;;;15.14;100.00;99465.59;5075650;28;19925;-82
2021/06/10 03:35:06;;;;;;;;;;;;;;;15.15;100.00;99467.16;5077952;28;19925;-83
2021/06/10 03:37:34;;;;;;;;;;;;;;;15.23;100.00;99468.56;5076537;28;19932;-82
2021/06/10 03:40:01;;;;;;;;;;;;;;;15.24;100.00;99473.75;5077849;28;19932;-83
2021/06/10 03:42:30;;;;;;;;;;;;;;;15.23;100.00;99471.38;5078141;28;19935;-83
2021/06/10 03:44:57;;;;;;;;;;;;;;;15.24;100.00;99470.94;5070916;28;19932;-83
2021/06/10 03:47:25;;;;;;;;;;;;;;;15.18;100.00;99472.72;5068277;28;19924;-83
2021/06/10 03:49:52;;;;;;;;;;;;;;;15.28;100.00;99482.88;5075875;28;19929;-83
2021/06/10 03:52:29;;;;;;;;;;;;;;;15.29;100.00;99478.03;5049714;28;19998;-83
2021/06/10 03:54:58;;;;;;;;;;;;;;;15.32;100.00;99480.75;5059165;28;19925;-83
2021/06/10 03:57:25;;;;;;;;;;;;;;;15.36;100.00;99483.44;5059939;28;19947;-83
2021/06/10 03:59:52;;;;;;;;;;;;;;;15.30;100.00;99488.84;5077279;28;19964;-83
2021/06/10 04:02:19;;;;;;;;;;;;;;;15.24;100.00;99487.81;5076246;28;20011;-83
2021/06/10 04:04:47;;;;;;;;;;;;;;;15.13;100.00;99481.69;5109670;28;20326;-83
2021/06/10 04:07:14;;;;;;;;;;;;;;;15.13;100.00;99487.31;5056232;28;20261;-83
2021/06/10 04:09:41;;;;;;;;;;;;;;;15.12;100.00;99484.94;5069945;28;19932;-83
2021/06/10 04:12:08;;;;;;;;;;;;;;;15.09;100.00;99497.88;5075613;28;19924;-83
2021/06/10 04:14:35;;;;;;;;;;;;;;;15.05;100.00;99499.22;5075687;28;20380;-83
2021/06/10 04:17:03;;;;;;;;;;;;;;;15.04;100.00;99506.84;5077317;28;20286;-83
2021/06/10 04:19:30;;;;;;;;;;;;;;;15.01;100.00;99504.94;5082862;28;19950;-83
2021/06/10 04:21:57;;;;;;;;;;;;;;;15.02;100.00;99514.19;5071754;28;19931;-83
2021/06/10 04:24:24;;;;;;;;;;;;;;;15.09;100.00;99516.78;5075792;28;20271;-83
2021/06/10 04:26:51;;;;;;;;;;;;;;;15.06;100.00;99514.84;5079120;28;19925;-83
2021/06/10 04:29:19;;;;;;;;;;;;;;;15.09;100.00;99514.78;5076163;28;20399;-83
2021/06/10 04:31:46;;;;;;;;;;;;;;;15.20;100.00;99520.13;5075300;28;19974;-83
2021/06/10 04:34:13;;;;;;;;;;;;;;;15.13;100.00;99518.28;5042278;28;20303;-83
2021/06/10 04:36:40;;;;;;;;;;;;;;;15.12;100.00;99529.97;5076951;28;19932;-83
2021/06/10 04:39:08;;;;;;;;;;;;;;;15.13;100.00;99535.16;5075835;28;20371;-82
2021/06/10 04:41:36;;;;;;;;;;;;;;;15.15;100.00;99535.50;5063894;28;20390;-82
2021/06/10 04:44:03;;;;;;;;;;;;;;;15.12;100.00;99536.41;5044595;28;20024;-83
2021/06/10 04:46:32;;;;;;;;;;;;;;;15.16;100.00;99533.50;5068847;28;19964;-83
2021/06/10 04:49:00;;;;;;;;;;;;;;;15.14;100.00;99528.31;5068496;28;19935;-82
2021/06/10 04:51:27;;;;;;;;;;;;;;;15.14;100.00;99533.94;5077843;28;19930;-83
2021/06/10 04:53:55;;;;;;;;;;;;;;;15.20;100.00;99532.19;5046487;28;20001;-83
2021/06/10 04:56:22;;;;;;;;;;;;;;;15.23;100.00;99536.13;5073433;28;19974;-83
2021/06/10 04:58:49;;;;;;;;;;;;;;;15.20;100.00;99549.06;5075218;28;20395;-83
2021/06/10 05:01:17;;;;;;;;;;;;;;;15.23;100.00;99531.28;5076148;28;19925;-83
2021/06/10 05:03:44;;;;;;;;;;;;;;;15.29;100.00;99535.13;5066391;28;19970;-83
2021/06/10 05:06:12;;;;;;;;;;;;;;;15.36;100.00;99537.75;5071425;28;19925;-83
2021/06/10 05:08:39;;;;;;;;;;;;;;;15.34;100.00;99533.81;5062043;28;19928;-83
2021/06/10 05:11:06;;;;;;;;;;;;;;;15.37;100.00;99533.72;5091577;28;19928;-83
2021/06/10 05:13:36;;;;;;;;;;;;;;;15.44;100.00;99527.91;5107660;28;20034;-83
2021/06/10 05:16:03;;;;;;;;;;;;;;;15.43;100.00;99525.53;5075105;28;19924;-83
2021/06/10 05:18:30;;;;;;;;;;;;;;;15.47;100.00;99524.19;5075528;28;20387;-83
2021/06/10 05:20:57;;;;;;;;;;;;;;;15.44;100.00;99522.28;5064480;28;20441;-85
2021/06/10 05:23:25;;;;;;;;;;;;;;;15.52;100.00;99534.94;5067932;28;19925;-82
2021/06/10 05:25:53;;;;;;;;;;;;;;;15.48;100.00;99531.41;5060452;28;19924;-81
2021/06/10 05:28:20;;;;;;;;;;;;;;;15.51;100.00;99529.75;5071416;28;20359;-82
2021/06/10 05:30:47;;;;;;;;;;;;;;;15.52;100.00;99539.75;5037360;28;19931;-81
2021/06/10 05:33:14;;;;;;;;;;;;;;;15.50;100.00;99539.41;5063641;28;19925;-81
2021/06/10 05:35:41;;;;;;;;;;;;;;;15.53;100.00;99536.50;5065148;28;19952;-81
2021/06/10 05:38:09;;;;;;;;;;;;;;;15.61;100.00;99542.72;5057075;28;19940;-81
2021/06/10 05:40:36;;;;;;;;;;;;;;;15.67;100.00;99549.38;5058497;28;19925;-81
2021/06/10 05:43:03;;;;;;;;;;;;;;;15.80;100.00;99548.19;5051247;28;20541;-81
2021/06/10 05:45:31;;;;;;;;;;;;;;;15.88;100.00;99546.75;5052029;28;20360;-81
2021/06/10 05:47:59;;;;;;;;;;;;;;;15.98;100.00;99553.28;5061150;28;19925;-81
2021/06/10 05:50:26;;;;;;;;;;;;;;;16.10;100.00;99547.66;5057739;28;19974;-81
2021/06/10 05:52:54;;;;;;;;;;;;;;;16.18;100.00;99545.41;5071841;28;19925;-81
2021/06/10 05:55:22;;;;;;;;;;;;;;;16.14;100.00;99545.56;5057159;28;20000;-81
2021/06/10 05:57:50;;;;;;;;;;;;;;;16.16;100.00;99534.59;5056104;28;20031;-81
2021/06/10 06:00:17;;;;;;;;;;;;;;;16.13;100.00;99532.69;5055907;28;19991;-81
2021/06/10 06:02:44;;;;;;;;;;;;;;;16.07;100.00;99525.22;5060638;28;19925;-81
2021/06/10 06:05:14;;;;;;;;;;;;;;;16.13;100.00;99532.69;5047134;28;19932;-81
2021/06/10 06:07:41;;;;;;;;;;;;;;;16.13;100.00;99527.03;5056189;28;20710;-81
2021/06/10 06:10:08;;;;;;;;;;;;;;;16.17;100.00;99521.28;5063769;28;19931;-81
2021/06/10 06:12:36;;;;;;;;;;;;;;;16.18;100.00;99515.22;5062669;28;19925;-81
2021/06/10 06:15:09;;;;;;;;;;;;;;;16.19;100.00;99513.97;5056569;28;19925;-81
2021/06/10 06:17:44;;;;;;;;;;;;;;;16.32;100.00;99510.34;5049146;28;20512;-81
2021/06/10 06:20:13;;;;;;;;;;;;;;;16.32;100.00;99510.34;5081674;28;20021;-81
2021/06/10 06:22:43;;;;;;;;;;;;;;;16.38;100.00;99502.91;5052480;28;19936;-81
2021/06/10 06:25:14;;;;;;;;;;;;;;;16.34;100.00;99496.59;5050207;28;19928;-81
2021/06/10 06:27:42;;;;;;;;;;;;;;;16.37;100.00;99493.69;5055414;28;19924;-81
2021/06/10 06:30:10;;;;;;;;;;;;;;;16.31;100.00;99508.78;5055168;28;19925;-81
2021/06/10 06:32:37;;;;;;;;;;;;;;;16.41;100.00;99496.34;5058445;28;19924;-89
2021/06/10 06:35:05;;;;;;;;;;;;;;;16.39;100.00;99493.22;5088995;28;20027;-81
2021/06/10 06:37:33;;;;;;;;;;;;;;;16.42;100.00;99492.31;5071466;28;19974;-81
2021/06/10 06:40:00;;;;;;;;;;;;;;;16.50;100.00;99493.66;5073336;28;19928;-80
2021/06/10 06:42:27;;;;;;;;;;;;;;;16.51;100.00;99484.00;5072784;28;19963;-80
2021/06/10 06:44:54;;;;;;;;;;;;;;;16.43;100.00;99479.78;5073084;28;19924;-80
2021/06/10 06:47:21;;;;;;;;;;;;;;;16.44;100.00;99472.91;5071684;28;19925;-80
2021/06/10 06:49:49;;;;;;;;;;;;;;;16.44;100.00;99485.00;5055075;28;20035;-80
2021/06/10 06:52:16;;;;;;;;;;;;;;;16.54;100.00;99483.06;5065052;28;19977;-81
2021/06/10 06:54:44;;;;;;;;;;;;;;;16.50;100.00;99479.56;5072432;28;19925;-80
2021/06/10 06:57:11;;;;;;;;;;;;;;;16.59;100.00;99479.66;5071924;28;19931;-80
2021/06/10 06:59:39;;;;;;;;;;;;;;;16.60;100.00;99476.38;5072368;28;19925;-81
2021/06/10 07:02:06;;;;;;;;;;;;;;;16.67;100.00;99464.09;5063865;28;19935;-80
2021/06/10 07:04:34;;;;;;;;;;;;;;;16.60;100.00;99472.81;5053065;28;20407;-80
2021/06/10 07:07:02;;;;;;;;;;;;;;;16.68;100.00;99471.28;5052533;28;19925;-80
2021/06/10 07:09:29;;;;;;;;;;;;;;;16.80;100.00;99470.47;5099282;28;19925;-81
2021/06/10 07:11:57;;;;;;;;;;;;;;;17.09;100.00;99460.56;5071660;28;19932;-80
2021/06/10 07:14:24;;;;;;;;;;;;;;;17.31;100.00;99452.13;5072629;28;19925;-80
2021/06/10 07:16:52;;;;;;;;;;;;;;;17.46;100.00;99453.19;5072169;28;19932;-80
2021/06/10 07:19:19;;;;;;;;;;;;;;;17.62;100.00;99438.84;5072976;28;19978;-80
2021/06/10 07:21:49;;;;;;;;;;;;;;;17.71;100.00;99427.59;5072330;28;19931;-81
2021/06/10 07:24:26;;;;;;;;;;;;;;;17.92;100.00;99423.91;5073224;28;20490;-81
2021/06/10 07:26:53;;;;;;;;;;;;;;;18.01;100.00;99423.94;5055699;28;20299;-89
2021/06/10 07:29:21;;;;;;;;;;;;;;;18.68;100.00;99418.34;5055852;28;19951;-84
2021/06/10 07:31:48;;;;;;;;;;;;;;;19.79;100.00;99411.69;5073981;28;20071;-85
2021/06/10 07:34:15;;;;;;;;;;;;;;;21.24;100.00;99388.88;5047775;28;19940;-87
2021/06/10 07:36:42;;;;;;;;;;;;;;;21.47;100.00;99355.94;5018324;28;19933;-86
2021/06/10 07:39:10;;;;;;;;;;;;;;;21.06;100.00;99346.44;5039226;28;19988;-85
2021/06/10 07:41:38;;;;;;;;;;;;;;;20.13;100.00;99345.22;5048579;28;19925;-84
2021/06/10 07:44:05;;;;;;;;;;;;;;;19.87;100.00;99341.22;5053170;28;19925;-87
2021/06/10 07:46:32;;;;;;;;;;;;;;;19.40;100.00;99334.16;5063074;28;19971;-86
2021/06/10 07:49:00;;;;;;;;;;;;;;;19.08;100.00;99340.50;5032494;28;19952;-86
2021/06/10 07:51:27;;;;;;;;;;;;;;;18.93;100.00;99342.41;5065643;28;20296;-85
2021/06/10 07:53:54;;;;;;;;;;;;;;;18.96;100.00;99352.78;5059759;28;19924;-92
2021/06/10 07:56:22;;;;;;;;;;;;;;;18.85;100.00;99344.00;5040749;28;19932;-89
2021/06/10 07:58:49;;;;;;;;;;;;;;;19.55;100.00;99357.72;5025806;28;20036;-90
2021/06/10 08:01:17;;;;;;;;;;;;;;;21.39;100.00;99350.66;5067714;28;20024;-88
2021/06/10 08:03:46;;;;;;;;;;;;;;;21.89;100.00;99337.31;5036522;28;19933;-89
2021/06/10 08:06:13;;;;;;;;;;;;;;;21.34;100.00;99334.28;5054521;28;20363;-89
2021/06/10 08:08:40;;;;;;;;;;;;;;;20.68;100.00;99335.84;5052314;28;19939;-86
2021/06/10 08:11:09;;;;;;;;;;;;;;;20.35;100.00;99340.03;5054284;28;20379;-88
2021/06/10 08:13:37;;;;;;;;;;;;;;;20.18;100.00;99341.72;5056330;28;19932;-87
2021/06/10 08:16:04;;;;;;;;;;;;;;;20.29;100.00;99333.47;5076985;28;19925;-86
2021/06/10 08:18:31;;;;;;;;;;;;;;;20.75;100.00;99331.84;5058563;28;19925;-88
2021/06/10 08:20:59;;;;;;;;;;;;;;;20.64;100.00;99334.47;5076215;28;19925;-85
2021/06/10 08:23:27;;;;;;;;;;;;;;;21.04;100.00;99329.88;5095479;28;19947;-85
2021/06/10 08:25:57;;;;;;;;;;;;;;;20.88;100.00;99321.81;5045632;28;19924;-85
2021/06/10 08:28:24;;;;;;;;;;;;;;;20.57;100.00;99324.25;5085927;28;19932;-88
2021/06/10 08:30:51;;;;;;;;;;;;;;;20.28;100.00;99329.06;5049973;28;19933;-86
2021/06/10 08:33:19;;;;;;;;;;;;;;;20.32;100.00;99318.31;5052013;28;19951;-85
2021/06/10 08:35:46;;;;;;;;;;;;;;;20.38;100.00;99322.03;5055892;28;19931;-82
2021/06/10 08:38:13;;;;;;;;;;;;;;;20.28;100.00;99329.81;5073067;28;19935;-83
2021/06/10 08:40:40;;;;;;;;;;;;;;;20.07;100.00;99332.94;5059091;28;19935;-86
2021/06/10 08:43:10;;;;;;;;;;;;;;;20.34;100.00;99329.97;5090641;28;20288;-83
2021/06/10 08:45:41;;;;;;;;;;;;;;;20.41;100.00;99326.75;5079079;28;19932;-85
2021/06/10 08:48:09;;;;;;;;;;;;;;;20.08;100.00;99334.50;5059150;28;20260;-85
2021/06/10 08:50:36;;;;;;;;;;;;;;;19.80;100.00;99344.41;5067555;28;19932;-85
2021/06/10 08:53:04;;;;;;;;;;;;;;;19.91;100.00;99336.16;5073011;28;19924;-86
2021/06/10 08:55:32;;;;;;;;;;;;;;;20.04;100.00;99342.41;5065997;28;19975;-84
2021/06/10 08:58:00;;;;;;;;;;;;;;;20.10;100.00;99337.66;5091136;28;19952;-87
2021/06/10 09:00:29;;;;;;;;;;;;;;;19.91;100.00;99327.66;5074980;28;20338;-81
2021/06/10 09:02:59;;;;;;;;;;;;;;;19.72;100.00;99337.53;5059915;28;20023;-81
2021/06/10 09:05:28;;;;;;;;;;;;;;;19.73;100.00;99332.13;5059660;28;19924;-81
2021/06/10 09:07:59;;;;;;;;;;;;;;;19.75;100.00;99330.88;5060039;28;19964;-81
2021/06/10 09:10:27;;;;;;;;;;;;;;;19.89;100.00;99330.22;5099063;28;19948;-81
2021/06/10 09:13:19;;;;;;;;;;;;;;;19.77;100.00;99337.66;5058223;28;19924;-82
2021/06/10 09:15:46;;;;;;;;;;;;;;;19.61;100.00;99338.03;5073721;28;20288;-81
2021/06/10 09:18:14;;;;;;;;;;;;;;;19.68;100.00;99329.97;5059806;28;19936;-81
2021/06/10 09:20:42;;;;;;;;;;;;;;;19.73;100.00;99334.97;5059034;28;20275;-81
2021/06/10 09:23:12;;;;;;;;;;;;;;;19.61;100.00;99338.81;5068847;28;20017;-81
2021/06/10 09:25:40;;;;;;;;;;;;;;;19.51;100.00;99331.59;5073329;28;20383;-81
2021/06/10 09:28:07;;;;;;;;;;;;;;;19.38;100.00;99335.91;5074458;28;19924;-81
2021/06/10 09:30:36;;;;;;;;;;;;;;;19.48;100.00;99335.41;5059936;28;19928;-82
2021/06/10 09:33:07;;;;;;;;;;;;;;;19.61;100.00;99338.03;5075097;28;19924;-81
2021/06/10 09:35:36;;;;;;;;;;;;;;;19.33;100.00;99340.16;5074834;28;19973;-80
2021/06/10 09:38:10;;;;;;;;;;;;;;;19.28;100.00;99332.28;5074806;28;19960;-81
2021/06/10 09:40:37;;;;;;;;;;;;;;;19.38;100.00;99338.75;5074814;28;20007;-81
2021/06/10 09:43:06;;;;;;;;;;;;;;;19.50;100.00;99338.53;5107596;28;20319;-81
2021/06/10 09:45:33;;;;;;;;;;;;;;;19.32;100.00;99327.28;5075014;28;19967;-81
2021/06/10 09:48:04;;;;;;;;;;;;;;;19.41;100.00;99330.06;5074385;28;20355;-81
2021/06/10 09:50:41;;;;;;;;;;;;;;;19.46;100.00;99334.31;5074864;28;19931;-81
2021/06/10 09:53:09;;;;;;;;;;;;;;;19.59;100.00;99338.50;5064798;28;19933;-81
2021/06/10 09:55:54;;;;;;;;;;;;;;;19.48;100.00;99329.72;5056754;28;19947;-81
2021/06/10 09:58:38;;;;;;;;;;;;;;;19.47;100.00;99331.00;5047201;28;20359;-81
2021/06/10 10:01:11;;;;;;;;;;;;;;;19.32;100.00;99335.78;5061909;28;19925;-81
2021/06/10 10:03:43;;;;;;;;;;;;;;;19.41;100.00;99330.06;5048769;28;19960;-82
2021/06/10 10:06:23;;;;;;;;;;;;;;;19.40;100.00;99337.00;5059496;28;20602;-78
2021/06/10 10:08:52;;;;;;;;;;;;;;;19.54;100.00;99330.66;5065936;28;19931;-78
2021/06/10 10:11:20;;;;;;;;;;;;;;;19.40;100.00;99333.38;5060900;28;19925;-78
2021/06/10 10:13:50;;;;;;;;;;;;;;;19.43;100.00;99327.53;5054211;28;19932;-78
2021/06/10 10:16:25;;;;;;;;;;;;;;;19.41;100.00;99329.28;5060626;28;19925;-78
2021/06/10 10:18:54;;;;;;;;;;;;;;;19.23;100.00;99324.44;5049539;28;20314;-78
2021/06/10 10:21:27;;;;;;;;;;;;;;;19.28;100.00;99328.69;5073879;28;19925;-78
2021/06/10 10:24:01;;;;;;;;;;;;;;;19.21;100.00;99312.78;5054273;28;19940;-78
2021/06/10 10:26:29;;;;;;;;;;;;;;;19.43;100.00;99333.19;5054334;28;19924;-78
2021/06/10 10:29:00;;;;;;;;;;;;;;;19.50;100.00;99327.22;5050070;28;20360;-78
2021/06/10 10:31:28;;;;;;;;;;;;;;;19.40;100.00;99319.97;5055100;28;19929;-78
2021/06/10 10:33:56;;;;;;;;;;;;;;;19.60;100.00;99327.94;5055921;28;19998;-78
2021/06/10 10:36:24;;;;;;;;;;;;;;;19.53;100.00;99319.78;5055490;28;19947;-77
2021/06/10 10:38:59;;;;;;;;;;;;;;;19.65;100.00;99322.44;5050960;28;19929;-78
2021/06/10 10:41:26;;;;;;;;;;;;;;;19.70;100.00;99316.09;5061121;28;19928;-78
2021/06/10 10:44:19;;;;;;;;;;;;;;;19.64;100.00;99323.66;5063104;28;19931;-78
2021/06/10 10:46:55;;;;;;;;;;;;;;;19.35;100.00;99328.34;5083927;28;20372;-78
2021/06/10 10:49:24;;;;;;;;;;;;;;;19.35;100.00;99320.66;5051454;28;19932;-78
2021/06/10 10:51:51;;;;;;;;;;;;;;;19.22;100.00;99322.84;5056373;28;19924;-78
2021/06/10 10:54:31;;;;;;;;;;;;;;;19.53;100.00;99326.25;5054931;28;19932;-78
2021/06/10 10:56:59;;;;;;;;;;;;;;;19.78;100.00;99324.25;5040591;28;19925;-78
2021/06/10 10:59:38;;;;;;;;;;;;;;;19.69;100.00;99317.38;5061747;28;20245;-79
2021/06/10 11:02:09;;;;;;;;;;;;;;;19.63;100.00;99324.94;5050929;28;19928;-78
2021/06/10 11:04:57;;;;;;;;;;;;;;;19.63;100.00;99321.31;5060427;28;20399;-78
2021/06/10 11:07:34;;;;;;;;;;;;;;;19.60;100.00;99325.91;5052131;28;20027;-78
2021/06/10 11:10:03;;;;;;;;;;;;;;;19.47;100.00;99322.50;5095156;28;19932;-78
2021/06/10 11:12:43;;;;;;;;;;;;;;;19.33;100.00;99322.38;5037475;28;20287;-78
2021/06/10 11:15:23;;;;;;;;;;;;;;;19.56;100.00;99318.84;5070233;28;19929;-78
2021/06/10 11:17:51;;;;;;;;;;;;;;;19.80;100.00;99311.16;5068933;28;19924;-78
2021/06/10 11:20:18;;;;;;;;;;;;;;;20.04;100.00;99311.22;5073069;28;19931;-78
2021/06/10 11:22:47;;;;;;;;;;;;;;;20.24;100.00;99295.19;5071831;28;19932;-79
2021/06/10 11:25:35;;;;;;;;;;;;;;;19.88;100.00;99294.59;5054246;28;19968;-78
2021/06/10 11:28:07;;;;;;;;;;;;;;;20.08;100.00;99291.97;5053156;28;19925;-78
2021/06/10 11:30:36;;;;;;;;;;;;;;;20.17;100.00;99283.41;5038775;28;19928;-78
2021/06/10 11:33:10;;;;;;;;;;;;;;;20.33;100.00;99285.81;5049297;28;19931;-78
2021/06/10 11:35:42;;;;;;;;;;;;;;;20.33;100.00;99274.47;5058282;28;20376;-78
2021/06/10 11:38:14;;;;;;;;;;;;;;;20.40;100.00;99286.22;5054025;28;20355;-78
2021/06/10 11:40:45;;;;;;;;;;;;;;;20.34;100.00;99276.81;5048787;28;20344;-78
2021/06/10 11:43:14;;;;;;;;;;;;;;;20.54;100.00;99282.66;5050997;28;19979;-78
2021/06/10 11:45:42;;;;;;;;;;;;;;;20.64;100.00;99280.53;5046856;28;20513;-78
2021/06/10 11:48:10;;;;;;;;;;;;;;;20.68;100.00;99272.59;5073190;28;19925;-78
2021/06/10 11:50:41;;;;;;;;;;;;;;;20.75;100.00;99266.56;5061660;28;19933;-78
2021/06/10 11:53:17;;;;;;;;;;;;;;;20.96;100.00;99265.44;5053268;28;19924;-78
2021/06/10 11:55:48;;;;;;;;;;;;;;;20.90;100.00;99273.78;5056999;28;19970;-79
2021/06/10 11:58:15;;;;;;;;;;;;;;;20.72;100.00;99273.22;5092784;28;20122;-79
2021/06/10 12:00:44;;;;;;;;;;;;;;;20.70;100.00;99268.00;5055676;28;19975;-79
2021/06/10 12:03:12;;;;;;;;;;;;;;;20.82;100.00;99271.84;5056766;28;19929;-79
2021/06/10 12:05:52;;;;;;;;;;;;;;;20.68;100.00;99270.53;5056999;28;20081;-79
2021/06/10 12:08:21;;;;;;;;;;;;;;;20.87;100.00;99262.66;5064927;28;20018;-79
2021/06/10 12:10:49;;;;;;;;;;;;;;;21.10;100.00;99267.47;5072599;28;19932;-79
2021/06/10 12:13:24;;;;;;;;;;;;;;;21.12;100.00;99254.34;5092006;28;19924;-79
2021/06/10 12:15:52;;;;;;;;;;;;;;;21.23;100.00;99262.28;5056947;28;19932;-79
2021/06/10 12:18:19;;;;;;;;;;;;;;;21.02;100.00;99252.09;5038940;28;19931;-79
2021/06/10 12:20:53;;;;;;;;;;;;;;;20.92;100.00;99256.25;5060452;28;19947;-80
2021/06/10 12:23:25;;;;;;;;;;;;;;;21.10;100.00;99244.72;5072875;28;20029;-79
2021/06/10 12:25:53;;;;;;;;;;;;;;;20.99;100.00;99250.25;5076339;28;19924;-79
2021/06/10 12:28:42;;;;;;;;;;;;;;;21.04;100.00;99255.22;5076343;28;20252;-79
2021/06/10 12:31:19;;;;;;;;;;;;;;;21.06;100.00;99244.16;5076310;28;19924;-79
2021/06/10 12:33:49;;;;;;;;;;;;;;;20.86;100.00;99255.38;5074921;28;19931;-79
2021/06/10 12:36:18;;;;;;;;;;;;;;;20.56;100.00;99253.78;5076396;28;19925;-79
2021/06/10 12:38:52;;;;;;;;;;;;;;;20.40;100.00;99254.25;5076130;28;19928;-79
2021/06/10 12:41:23;;;;;;;;;;;;;;;20.39;100.00;99258.31;5094711;28;20077;-79
2021/06/10 12:43:52;;;;;;;;;;;;;;;20.56;100.00;99254.56;5074721;28;19925;-79
2021/06/10 12:46:22;;;;;;;;;;;;;;;20.75;100.00;99258.03;5075814;28;19930;-79
2021/06/10 12:48:56;;;;;;;;;;;;;;;20.88;100.00;99256.47;5075728;28;19960;-79
2021/06/10 12:51:28;;;;;;;;;;;;;;;20.93;100.00;99255.00;5057654;28;19970;-79
2021/06/10 12:54:00;;;;;;;;;;;;;;;21.08;100.00;99256.59;5056855;28;20019;-79
2021/06/10 12:56:35;;;;;;;;;;;;;;;20.86;100.00;99252.53;5057270;28;19932;-78
2021/06/10 12:59:03;;;;;;;;;;;;;;;20.91;100.00;99252.66;5055288;28;19936;-81
2021/06/10 13:01:31;;;;;;;;;;;;;;;20.86;100.00;99249.69;5054987;28;19947;-81
2021/06/10 13:03:58;;;;;;;;;;;;;;;20.76;100.00;99245.41;5038355;28;19924;-82
2021/06/10 13:06:27;;;;;;;;;;;;;;;20.75;100.00;99255.19;5054483;28;20033;-81
2021/06/10 13:08:54;;;;;;;;;;;;;;;20.62;100.00;99251.84;5056726;28;20023;-82
2021/06/10 13:11:22;;;;;;;;;;;;;;;20.72;100.00;99245.56;5061445;28;20052;-81
2021/06/10 13:13:50;;;;;;;;;;;;;;;20.65;100.00;99254.50;5056621;28;19932;-81
2021/06/10 13:16:17;;;;;;;;;;;;;;;20.76;100.00;99251.06;5056451;28;19932;-82
2021/06/10 13:18:45;;;;;;;;;;;;;;;20.64;100.00;99246.47;5055863;28;19932;-82
2021/06/10 13:21:18;;;;;;;;;;;;;;;20.47;100.00;99246.13;5055151;28;20398;-81